Terminal Aerodrome Forecast
Issued by NWS

Home | Current Version | Previous Version | Text Only | Print | Product List | Glossary On
Versions: 1 2 3 4 5 6 7 8 9 10 11 12 13 14 15 16 17 18
000
FTUS41 KPBZ 311126
TAFAGC
TAF
KAGC 311126Z 3112/0112 16006KT P6SM SKC
      TEMPO 3112/3113 5SM BR
     FM311700 25003KT P6SM VCTS BKN080CB
     FM312300 31004KT P6SM -SHRA VCTS BKN050CB
     FM010300 34005KT P6SM BKN025=

USA.gov is the U.S. government's official web portal to all federal, state and local government web resources and services.